sensor_id;sensor_type;location;lat;lon;timestamp;noise_LAeq;noise_LA_min;noise_LA_max;noise_LA01;noise_LA95
79288;Laerm;68737;53.946;27.634;2023-06-26T00:00:20;38.367538;36.072052;45.173271;;
79288;Laerm;68737;53.946;27.634;2023-06-26T00:02:49;43.994751;36.645164;61.162373;;
79288;Laerm;68737;53.946;27.634;2023-06-26T00:05:20;39.201866;36.791687;46.282761;;
79288;Laerm;68737;53.946;27.634;2023-06-26T00:07:49;40.045250;37.186424;48.842545;;
79288;Laerm;68737;53.946;27.634;2023-06-26T00:10:20;42.463676;37.617523;56.256889;;
79288;Laerm;68737;53.946;27.634;2023-06-26T00:12:49;39.394432;37.278328;53.265259;;
79288;Laerm;68737;53.946;27.634;2023-06-26T00:15:19;44.890335;36.332428;57.492737;;
79288;Laerm;68737;53.946;27.634;2023-06-26T00:17:49;40.703522;36.899292;51.621468;;
79288;Laerm;68737;53.946;27.634;2023-06-26T00:20:20;38.484711;36.550362;42.200470;;
79288;Laerm;68737;53.946;27.634;2023-06-26T00:22:50;45.346481;36.661697;57.820137;;
79288;Laerm;68737;53.946;27.634;2023-06-26T00:25:19;45.119194;36.960991;58.358994;;
79288;Laerm;68737;53.946;27.634;2023-06-26T00:27:49;44.518303;37.166077;57.898026;;
79288;Laerm;68737;53.946;27.634;2023-06-26T00:30:19;41.745262;36.897980;56.841492;;
79288;Laerm;68737;53.946;27.634;2023-06-26T00:32:49;38.500839;36.395325;40.950211;;
79288;Laerm;68737;53.946;27.634;2023-06-26T00:35:19;37.681602;35.804672;40.755478;;
79288;Laerm;68737;53.946;27.634;2023-06-26T00:37:49;45.544312;35.789925;58.028648;;
79288;Laerm;68737;53.946;27.634;2023-06-26T00:40:19;42.982559;36.451736;58.284706;;
79288;Laerm;68737;53.946;27.634;2023-06-26T00:42:49;47.364716;36.751312;59.036407;;
79288;Laerm;68737;53.946;27.634;2023-06-26T00:45:19;41.307777;37.245811;54.962341;;
79288;Laerm;68737;53.946;27.634;2023-06-26T00:47:49;39.406517;37.027222;48.165405;;
79288;Laerm;68737;53.946;27.634;2023-06-26T00:50:20;38.826973;35.672478;55.700996;;
79288;Laerm;68737;53.946;27.634;2023-06-26T00:52:49;37.775398;35.357979;48.578842;;
79288;Laerm;68737;53.946;27.634;2023-06-26T00:55:19;42.508064;36.848412;56.975159;;
79288;Laerm;68737;53.946;27.634;2023-06-26T00:57:49;43.952888;36.458961;58.647400;;
79288;Laerm;68737;53.946;27.634;2023-06-26T01:00:19;38.517479;35.918571;48.276649;;
79288;Laerm;68737;53.946;27.634;2023-06-26T01:02:49;38.635536;36.330475;43.841644;;
79288;Laerm;68737;53.946;27.634;2023-06-26T01:05:19;39.072876;36.771729;47.247887;;
79288;Laerm;68737;53.946;27.634;2023-06-26T01:07:49;39.703262;36.666084;50.726990;;
79288;Laerm;68737;53.946;27.634;2023-06-26T01:10:19;39.875000;36.801834;50.137688;;
79288;Laerm;68737;53.946;27.634;2023-06-26T01:12:49;41.802422;37.308769;54.915245;;
79288;Laerm;68737;53.946;27.634;2023-06-26T01:15:19;39.505318;36.272858;53.149048;;
79288;Laerm;68737;53.946;27.634;2023-06-26T01:17:50;38.705315;36.023766;45.221474;;
79288;Laerm;68737;53.946;27.634;2023-06-26T01:20:19;44.238701;36.752342;57.661278;;
79288;Laerm;68737;53.946;27.634;2023-06-26T01:27:50;40.168442;37.025764;53.711601;;
79288;Laerm;68737;53.946;27.634;2023-06-26T01:30:19;43.837067;37.161331;57.983315;;
79288;Laerm;68737;53.946;27.634;2023-06-26T01:32:49;40.610939;37.181664;53.644020;;
79288;Laerm;68737;53.946;27.634;2023-06-26T01:35:19;46.390495;37.531235;60.701462;;
79288;Laerm;68737;53.946;27.634;2023-06-26T01:37:49;41.057594;37.003883;52.888588;;
79288;Laerm;68737;53.946;27.634;2023-06-26T01:40:20;43.703316;36.831772;57.995316;;
79288;Laerm;68737;53.946;27.634;2023-06-26T01:42:50;44.116478;37.109383;58.031662;;
79288;Laerm;68737;53.946;27.634;2023-06-26T01:45:22;42.268433;36.864471;57.935295;;
79288;Laerm;68737;53.946;27.634;2023-06-26T01:47:50;40.557175;37.645073;49.521118;;
79288;Laerm;68737;53.946;27.634;2023-06-26T01:50:22;48.740883;37.676048;63.888630;;
79288;Laerm;68737;53.946;27.634;2023-06-26T01:57:49;41.074829;37.230934;53.860931;;
79288;Laerm;68737;53.946;27.634;2023-06-26T02:00:20;44.765846;37.975166;60.588936;;
79288;Laerm;68737;53.946;27.634;2023-06-26T02:02:49;45.760765;37.240639;57.905075;;
79288;Laerm;68737;53.946;27.634;2023-06-26T02:05:19;42.191811;37.180389;54.020180;;
79288;Laerm;68737;53.946;27.634;2023-06-26T02:07:49;49.600044;37.644012;65.431000;;
79288;Laerm;68737;53.946;27.634;2023-06-26T02:10:19;47.082672;38.097633;58.974808;;
79288;Laerm;68737;53.946;27.634;2023-06-26T02:12:49;46.320396;37.500839;60.226524;;
79288;Laerm;68737;53.946;27.634;2023-06-26T02:15:19;46.426834;37.946594;57.524391;;
79288;Laerm;68737;53.946;27.634;2023-06-26T02:17:49;43.504906;37.954002;56.574371;;
79288;Laerm;68737;53.946;27.634;2023-06-26T02:20:19;45.483284;37.933174;65.870926;;
79288;Laerm;68737;53.946;27.634;2023-06-26T02:22:49;44.031212;38.111946;58.285866;;
79288;Laerm;68737;53.946;27.634;2023-06-26T02:25:19;44.351814;38.841881;58.559692;;
79288;Laerm;68737;53.946;27.634;2023-06-26T02:27:49;45.223793;37.721321;57.455330;;
79288;Laerm;68737;53.946;27.634;2023-06-26T02:30:19;47.170219;37.865181;59.742653;;
79288;Laerm;68737;53.946;27.634;2023-06-26T02:32:49;46.035606;38.099731;63.066235;;
79288;Laerm;68737;53.946;27.634;2023-06-26T02:35:19;50.155312;38.399307;65.757614;;
79288;Laerm;68737;53.946;27.634;2023-06-26T02:37:49;46.716026;39.272011;58.424988;;
79288;Laerm;68737;53.946;27.634;2023-06-26T02:40:19;53.825523;38.809708;71.261253;;
79288;Laerm;68737;53.946;27.634;2023-06-26T02:42:49;46.312569;38.952934;59.149368;;
79288;Laerm;68737;53.946;27.634;2023-06-26T02:45:19;44.363449;38.843124;58.251526;;
79288;Laerm;68737;53.946;27.634;2023-06-26T02:47:49;47.095123;38.506256;58.698639;;
79288;Laerm;68737;53.946;27.634;2023-06-26T02:50:19;43.803200;38.258400;61.857544;;
79288;Laerm;68737;53.946;27.634;2023-06-26T02:52:49;44.454826;38.538559;59.948135;;
79288;Laerm;68737;53.946;27.634;2023-06-26T02:55:19;49.752365;39.786469;64.201065;;
79288;Laerm;68737;53.946;27.634;2023-06-26T02:57:49;44.134056;38.792336;57.219185;;
79288;Laerm;68737;53.946;27.634;2023-06-26T03:00:19;45.416229;38.722794;60.510769;;
79288;Laerm;68737;53.946;27.634;2023-06-26T03:02:49;49.018349;38.977783;67.481171;;
79288;Laerm;68737;53.946;27.634;2023-06-26T03:05:19;48.207558;39.584579;59.136700;;
79288;Laerm;68737;53.946;27.634;2023-06-26T03:07:49;43.682762;39.418869;55.870018;;
79288;Laerm;68737;53.946;27.634;2023-06-26T03:10:19;49.970802;40.595200;58.487900;;
79288;Laerm;68737;53.946;27.634;2023-06-26T03:12:49;50.855911;41.708122;63.682888;;
79288;Laerm;68737;53.946;27.634;2023-06-26T03:15:19;52.182228;39.828552;62.942245;;
79288;Laerm;68737;53.946;27.634;2023-06-26T03:17:49;48.990982;41.128052;60.233063;;
79288;Laerm;68737;53.946;27.634;2023-06-26T03:20:19;47.271828;39.522018;57.611732;;
79288;Laerm;68737;53.946;27.634;2023-06-26T03:22:49;49.208092;41.414444;60.717304;;
79288;Laerm;68737;53.946;27.634;2023-06-26T03:25:19;48.811142;40.655975;61.364803;;
79288;Laerm;68737;53.946;27.634;2023-06-26T03:27:49;48.226616;39.953629;58.609756;;
79288;Laerm;68737;53.946;27.634;2023-06-26T03:30:19;49.999283;40.081604;62.516315;;
79288;Laerm;68737;53.946;27.634;2023-06-26T03:32:49;48.906563;39.952042;63.168079;;
79288;Laerm;68737;53.946;27.634;2023-06-26T03:35:19;54.964645;40.660820;71.634308;;
79288;Laerm;68737;53.946;27.634;2023-06-26T03:37:49;51.126472;39.400612;62.598679;;
79288;Laerm;68737;53.946;27.634;2023-06-26T03:40:19;51.332222;39.989662;64.936188;;
79288;Laerm;68737;53.946;27.634;2023-06-26T03:42:49;52.199402;39.537659;66.502625;;
79288;Laerm;68737;53.946;27.634;2023-06-26T03:45:19;48.392059;40.190193;61.553055;;
79288;Laerm;68737;53.946;27.634;2023-06-26T03:47:49;49.977737;40.762520;61.486774;;
79288;Laerm;68737;53.946;27.634;2023-06-26T03:50:19;52.273399;42.275833;63.362499;;
79288;Laerm;68737;53.946;27.634;2023-06-26T03:52:49;50.816299;40.432640;68.696915;;
79288;Laerm;68737;53.946;27.634;2023-06-26T03:55:19;53.004311;41.946129;63.314148;;
79288;Laerm;68737;53.946;27.634;2023-06-26T03:57:49;51.684074;41.864799;61.654533;;
79288;Laerm;68737;53.946;27.634;2023-06-26T04:00:19;52.108612;42.960396;61.868408;;
79288;Laerm;68737;53.946;27.634;2023-06-26T04:02:49;49.687935;41.376274;59.581314;;
79288;Laerm;68737;53.946;27.634;2023-06-26T04:05:19;49.721024;41.611534;74.414322;;
79288;Laerm;68737;53.946;27.634;2023-06-26T04:10:19;50.741951;42.082520;66.889435;;
79288;Laerm;68737;53.946;27.634;2023-06-26T04:12:49;51.892349;42.636612;67.548996;;
79288;Laerm;68737;53.946;27.634;2023-06-26T04:15:19;51.892349;43.357056;59.679050;;
79288;Laerm;68737;53.946;27.634;2023-06-26T04:17:49;53.365997;42.540627;62.363060;;
79288;Laerm;68737;53.946;27.634;2023-06-26T04:20:19;55.031212;44.087494;68.534584;;
79288;Laerm;68737;53.946;27.634;2023-06-26T04:22:49;52.057945;43.036621;65.842575;;
79288;Laerm;68737;53.946;27.634;2023-06-26T04:25:21;53.684525;44.186371;68.106186;;
79288;Laerm;68737;53.946;27.634;2023-06-26T04:27:49;53.218811;43.173111;61.269211;;
79288;Laerm;68737;53.946;27.634;2023-06-26T04:30:19;54.871536;45.059784;72.586411;;
79288;Laerm;68737;53.946;27.634;2023-06-26T04:32:49;54.677589;44.438522;63.880901;;
79288;Laerm;68737;53.946;27.634;2023-06-26T04:35:19;52.619286;43.525627;60.140518;;
79288;Laerm;68737;53.946;27.634;2023-06-26T04:37:49;54.063461;43.639511;62.895565;;
79288;Laerm;68737;53.946;27.634;2023-06-26T04:40:19;54.481316;45.621292;62.088261;;
79288;Laerm;68737;53.946;27.634;2023-06-26T04:42:49;54.459610;44.628891;63.387363;;
79288;Laerm;68737;53.946;27.634;2023-06-26T04:45:19;58.404488;44.179031;77.663116;;
79288;Laerm;68737;53.946;27.634;2023-06-26T04:47:49;54.982803;45.507538;66.931168;;
79288;Laerm;68737;53.946;27.634;2023-06-26T04:50:19;55.409554;46.880241;62.805023;;
79288;Laerm;68737;53.946;27.634;2023-06-26T04:52:49;53.195366;44.673462;61.865376;;
79288;Laerm;68737;53.946;27.634;2023-06-26T04:55:19;56.187973;44.889923;66.608551;;
79288;Laerm;68737;53.946;27.634;2023-06-26T04:57:49;54.061378;45.691658;62.998268;;
79288;Laerm;68737;53.946;27.634;2023-06-26T05:00:19;52.956253;41.903496;60.173489;;
79288;Laerm;68737;53.946;27.634;2023-06-26T05:02:49;55.131775;45.548523;61.973827;;
79288;Laerm;68737;53.946;27.634;2023-06-26T05:05:19;54.693275;43.735291;64.894638;;
79288;Laerm;68737;53.946;27.634;2023-06-26T05:07:52;55.854607;44.260391;65.120010;;
79288;Laerm;68737;53.946;27.634;2023-06-26T05:10:19;54.093719;43.178154;66.998566;;
79288;Laerm;68737;53.946;27.634;2023-06-26T05:12:49;53.690254;45.195450;64.735382;;
79288;Laerm;68737;53.946;27.634;2023-06-26T05:15:19;53.271782;44.415482;60.483784;;
79288;Laerm;68737;53.946;27.634;2023-06-26T05:17:49;53.063011;44.188629;60.852364;;
79288;Laerm;68737;53.946;27.634;2023-06-26T05:20:19;54.641739;44.033524;65.139328;;
79288;Laerm;68737;53.946;27.634;2023-06-26T05:22:49;57.161385;47.458206;68.633148;;
79288;Laerm;68737;53.946;27.634;2023-06-26T05:25:19;58.707451;46.255783;71.760696;;
79288;Laerm;68737;53.946;27.634;2023-06-26T05:27:49;55.895500;46.701469;67.516403;;
79288;Laerm;68737;53.946;27.634;2023-06-26T05:30:19;54.157021;44.480766;60.443489;;
79288;Laerm;68737;53.946;27.634;2023-06-26T05:32:49;53.901657;46.057678;60.286457;;
79288;Laerm;68737;53.946;27.634;2023-06-26T05:37:49;57.251198;49.979446;76.366364;;
79288;Laerm;68737;53.946;27.634;2023-06-26T05:40:19;53.480370;46.517120;63.401218;;
79288;Laerm;68737;53.946;27.634;2023-06-26T05:42:49;54.368073;44.967873;62.236908;;
79288;Laerm;68737;53.946;27.634;2023-06-26T05:45:19;58.449318;48.647942;69.998901;;
79288;Laerm;68737;53.946;27.634;2023-06-26T05:47:49;54.377777;46.161942;61.362026;;
79288;Laerm;68737;53.946;27.634;2023-06-26T05:50:19;58.383690;49.859802;75.125305;;
79288;Laerm;68737;53.946;27.634;2023-06-26T05:52:49;55.643524;45.482353;71.587158;;
79288;Laerm;68737;53.946;27.634;2023-06-26T05:55:19;54.950058;45.215103;71.214775;;
79288;Laerm;68737;53.946;27.634;2023-06-26T05:57:49;54.053490;43.850952;76.899796;;
79288;Laerm;68737;53.946;27.634;2023-06-26T06:00:19;59.010391;44.318787;76.596176;;
79288;Laerm;68737;53.946;27.634;2023-06-26T06:02:49;57.246330;46.357246;66.987411;;
79288;Laerm;68737;53.946;27.634;2023-06-26T06:05:20;55.457962;46.142906;65.569321;;
79288;Laerm;68737;53.946;27.634;2023-06-26T06:07:49;55.200821;42.858757;69.349533;;
79288;Laerm;68737;53.946;27.634;2023-06-26T06:10:19;58.383102;42.657097;73.264389;;
79288;Laerm;68737;53.946;27.634;2023-06-26T06:12:49;55.475159;44.587936;70.289749;;
79288;Laerm;68737;53.946;27.634;2023-06-26T06:15:19;56.287895;45.433395;68.396927;;
79288;Laerm;68737;53.946;27.634;2023-06-26T06:17:49;54.045464;44.312332;65.010773;;
79288;Laerm;68737;53.946;27.634;2023-06-26T06:20:19;53.098740;43.218925;61.901405;;
79288;Laerm;68737;53.946;27.634;2023-06-26T06:22:49;55.344917;44.071922;67.238266;;
79288;Laerm;68737;53.946;27.634;2023-06-26T06:25:19;53.902611;44.818680;65.710052;;
79288;Laerm;68737;53.946;27.634;2023-06-26T06:27:49;54.705139;42.598305;69.171692;;
79288;Laerm;68737;53.946;27.634;2023-06-26T06:30:19;55.000374;46.538185;63.909546;;
79288;Laerm;68737;53.946;27.634;2023-06-26T06:32:49;59.657593;44.649681;74.322800;;
79288;Laerm;68737;53.946;27.634;2023-06-26T06:35:19;57.320305;50.313210;72.063469;;
79288;Laerm;68737;53.946;27.634;2023-06-26T06:37:49;59.559242;51.909218;72.088676;;
79288;Laerm;68737;53.946;27.634;2023-06-26T06:40:19;56.334663;47.445206;71.372482;;
79288;Laerm;68737;53.946;27.634;2023-06-26T06:42:49;59.595337;50.838585;74.270370;;
79288;Laerm;68737;53.946;27.634;2023-06-26T06:45:19;54.035225;45.202789;65.960251;;
79288;Laerm;68737;53.946;27.634;2023-06-26T06:47:49;53.698273;46.220978;61.825871;;
79288;Laerm;68737;53.946;27.634;2023-06-26T06:50:19;54.486519;45.675049;65.308578;;
79288;Laerm;68737;53.946;27.634;2023-06-26T06:52:49;57.334740;47.333061;68.952393;;
79288;Laerm;68737;53.946;27.634;2023-06-26T06:55:19;54.181686;45.877815;62.258518;;
79288;Laerm;68737;53.946;27.634;2023-06-26T06:57:49;54.495827;45.167572;70.963577;;
79288;Laerm;68737;53.946;27.634;2023-06-26T07:00:19;54.407860;47.187523;65.533577;;
79288;Laerm;68737;53.946;27.634;2023-06-26T07:02:49;58.131172;50.432693;76.306213;;
79288;Laerm;68737;53.946;27.634;2023-06-26T07:05:19;55.082581;47.819405;67.372986;;
79288;Laerm;68737;53.946;27.634;2023-06-26T07:07:49;57.577621;46.245857;68.513367;;
79288;Laerm;68737;53.946;27.634;2023-06-26T07:10:19;54.593925;48.405800;60.695301;;
79288;Laerm;68737;53.946;27.634;2023-06-26T07:12:49;53.358948;46.026741;61.289597;;
79288;Laerm;68737;53.946;27.634;2023-06-26T07:15:19;53.412064;46.096443;67.085503;;
79288;Laerm;68737;53.946;27.634;2023-06-26T07:17:49;58.284729;47.707558;68.715134;;
79288;Laerm;68737;53.946;27.634;2023-06-26T07:20:19;53.402512;44.937637;60.643044;;
79288;Laerm;68737;53.946;27.634;2023-06-26T07:22:49;55.038986;47.104424;65.081566;;
79288;Laerm;68737;53.946;27.634;2023-06-26T07:25:19;53.322327;45.776436;60.512939;;
79288;Laerm;68737;53.946;27.634;2023-06-26T07:27:49;54.197662;45.625618;66.188820;;
79288;Laerm;68737;53.946;27.634;2023-06-26T07:30:19;55.482025;43.910828;69.939484;;
79288;Laerm;68737;53.946;27.634;2023-06-26T07:32:49;55.205086;45.660011;65.104538;;
79288;Laerm;68737;53.946;27.634;2023-06-26T07:35:19;54.680565;46.883354;63.116467;;
79288;Laerm;68737;53.946;27.634;2023-06-26T07:37:49;54.777420;45.484367;64.616226;;
79288;Laerm;68737;53.946;27.634;2023-06-26T07:40:19;55.049141;46.235413;65.851707;;
79288;Laerm;68737;53.946;27.634;2023-06-26T07:42:49;56.518044;47.148483;69.718735;;
79288;Laerm;68737;53.946;27.634;2023-06-26T07:45:19;53.274002;45.825356;62.864105;;
79288;Laerm;68737;53.946;27.634;2023-06-26T07:47:49;54.863953;47.056152;64.504517;;
79288;Laerm;68737;53.946;27.634;2023-06-26T07:50:19;57.180786;44.712906;71.598526;;
79288;Laerm;68737;53.946;27.634;2023-06-26T07:52:49;56.257751;44.660728;72.926453;;
79288;Laerm;68737;53.946;27.634;2023-06-26T07:55:19;55.190376;46.151558;66.143646;;
79288;Laerm;68737;53.946;27.634;2023-06-26T07:57:49;54.502708;45.208145;67.854630;;
79288;Laerm;68737;53.946;27.634;2023-06-26T08:00:19;52.531403;44.350555;68.018929;;
79288;Laerm;68737;53.946;27.634;2023-06-26T08:02:49;55.273979;46.028145;67.959991;;
79288;Laerm;68737;53.946;27.634;2023-06-26T08:05:19;55.963181;46.279778;67.592209;;
79288;Laerm;68737;53.946;27.634;2023-06-26T08:07:49;54.629219;45.494347;63.157421;;
79288;Laerm;68737;53.946;27.634;2023-06-26T08:10:19;54.940834;44.927505;64.719025;;
79288;Laerm;68737;53.946;27.634;2023-06-26T08:12:49;54.072853;45.934677;62.465591;;
79288;Laerm;68737;53.946;27.634;2023-06-26T08:15:19;56.201225;46.756546;67.174744;;
79288;Laerm;68737;53.946;27.634;2023-06-26T08:17:49;54.016388;46.061142;64.061386;;
79288;Laerm;68737;53.946;27.634;2023-06-26T08:20:19;54.902008;45.730721;69.248932;;
79288;Laerm;68737;53.946;27.634;2023-06-26T08:22:49;54.205009;44.739044;68.536385;;
79288;Laerm;68737;53.946;27.634;2023-06-26T08:25:19;54.575317;44.573654;67.134865;;
79288;Laerm;68737;53.946;27.634;2023-06-26T08:27:49;55.016098;45.654938;69.530212;;
79288;Laerm;68737;53.946;27.634;2023-06-26T08:30:19;54.342964;44.669662;66.515686;;
79288;Laerm;68737;53.946;27.634;2023-06-26T08:32:49;54.338120;43.831497;63.963654;;
79288;Laerm;68737;53.946;27.634;2023-06-26T08:35:19;59.303448;44.284401;69.220139;;
79288;Laerm;68737;53.946;27.634;2023-06-26T08:37:49;53.053711;43.336685;68.301193;;
79288;Laerm;68737;53.946;27.634;2023-06-26T08:40:19;54.749290;44.022278;66.635818;;
79288;Laerm;68737;53.946;27.634;2023-06-26T08:42:49;54.059113;44.068932;63.958698;;
79288;Laerm;68737;53.946;27.634;2023-06-26T08:45:19;53.782837;45.722458;70.039291;;
79288;Laerm;68737;53.946;27.634;2023-06-26T08:47:51;58.669220;46.776642;76.040062;;
79288;Laerm;68737;53.946;27.634;2023-06-26T08:50:19;53.051628;44.337852;64.584824;;
79288;Laerm;68737;53.946;27.634;2023-06-26T08:55:19;53.849190;44.351730;71.522446;;
79288;Laerm;68737;53.946;27.634;2023-06-26T08:57:49;58.524803;43.883781;73.376083;;
79288;Laerm;68737;53.946;27.634;2023-06-26T09:00:19;57.173691;45.126389;73.577759;;
79288;Laerm;68737;53.946;27.634;2023-06-26T09:02:49;55.760292;45.794762;65.727692;;
79288;Laerm;68737;53.946;27.634;2023-06-26T09:05:19;54.595345;43.952568;70.929230;;
79288;Laerm;68737;53.946;27.634;2023-06-26T09:07:49;55.656570;45.520363;66.342209;;
79288;Laerm;68737;53.946;27.634;2023-06-26T09:10:19;54.928947;45.116547;61.386059;;
79288;Laerm;68737;53.946;27.634;2023-06-26T09:12:49;56.323631;44.810646;68.056015;;
79288;Laerm;68737;53.946;27.634;2023-06-26T09:15:19;53.874702;43.733238;62.187454;;
79288;Laerm;68737;53.946;27.634;2023-06-26T09:17:49;54.711006;44.672905;62.906662;;
79288;Laerm;68737;53.946;27.634;2023-06-26T09:20:19;56.711411;43.975960;68.980026;;
79288;Laerm;68737;53.946;27.634;2023-06-26T09:22:49;54.026947;41.742073;64.311737;;
79288;Laerm;68737;53.946;27.634;2023-06-26T09:25:19;54.735794;43.784546;70.651779;;
79288;Laerm;68737;53.946;27.634;2023-06-26T09:27:49;55.342438;45.065239;66.095375;;
79288;Laerm;68737;53.946;27.634;2023-06-26T09:30:19;54.188858;44.767456;63.578156;;
79288;Laerm;68737;53.946;27.634;2023-06-26T09:32:49;53.223885;45.008133;63.579002;;
79288;Laerm;68737;53.946;27.634;2023-06-26T09:35:19;53.808174;43.495056;62.168144;;
79288;Laerm;68737;53.946;27.634;2023-06-26T09:37:49;54.633385;44.803253;65.618759;;
79288;Laerm;68737;53.946;27.634;2023-06-26T09:40:19;54.999237;42.051239;66.546387;;
79288;Laerm;68737;53.946;27.634;2023-06-26T09:42:49;51.955040;42.517296;59.603428;;
79288;Laerm;68737;53.946;27.634;2023-06-26T09:45:19;55.706078;45.086655;68.125000;;
79288;Laerm;68737;53.946;27.634;2023-06-26T09:47:49;55.315514;46.332680;68.672241;;
79288;Laerm;68737;53.946;27.634;2023-06-26T09:52:50;53.898865;45.950294;62.693027;;
79288;Laerm;68737;53.946;27.634;2023-06-26T09:55:19;58.722145;44.842316;69.750900;;
79288;Laerm;68737;53.946;27.634;2023-06-26T09:57:49;54.099976;43.542992;64.011841;;
79288;Laerm;68737;53.946;27.634;2023-06-26T10:00:19;54.004059;42.363823;66.633423;;
79288;Laerm;68737;53.946;27.634;2023-06-26T10:02:49;53.747124;41.934753;65.126556;;
79288;Laerm;68737;53.946;27.634;2023-06-26T10:05:19;55.079735;44.342995;66.263390;;
79288;Laerm;68737;53.946;27.634;2023-06-26T10:07:49;53.348663;43.853271;60.954693;;
79288;Laerm;68737;53.946;27.634;2023-06-26T10:10:19;55.446228;45.502350;74.956512;;
79288;Laerm;68737;53.946;27.634;2023-06-26T10:12:49;54.132965;44.039543;63.029690;;
79288;Laerm;68737;53.946;27.634;2023-06-26T10:15:19;57.459923;45.679825;72.566833;;
79288;Laerm;68737;53.946;27.634;2023-06-26T10:17:49;54.295334;45.970779;62.425209;;
79288;Laerm;68737;53.946;27.634;2023-06-26T10:20:19;53.893616;44.610794;62.430847;;
79288;Laerm;68737;53.946;27.634;2023-06-26T10:22:49;54.950233;45.385567;65.674217;;
79288;Laerm;68737;53.946;27.634;2023-06-26T10:25:19;55.479576;46.657120;67.256561;;
79288;Laerm;68737;53.946;27.634;2023-06-26T10:27:51;59.949974;47.272758;72.417847;;
79288;Laerm;68737;53.946;27.634;2023-06-26T10:30:20;60.055027;43.764565;75.171906;;
79288;Laerm;68737;53.946;27.634;2023-06-26T10:32:49;54.773994;44.381294;65.759766;;
79288;Laerm;68737;53.946;27.634;2023-06-26T10:35:19;53.135895;45.977402;63.630173;;
79288;Laerm;68737;53.946;27.634;2023-06-26T10:37:49;54.223686;44.480293;66.801361;;
79288;Laerm;68737;53.946;27.634;2023-06-26T10:42:49;54.117081;44.224930;67.875458;;
79288;Laerm;68737;53.946;27.634;2023-06-26T10:45:19;55.136909;45.134140;64.278351;;
79288;Laerm;68737;53.946;27.634;2023-06-26T10:47:51;55.384087;44.582680;66.600571;;
79288;Laerm;68737;53.946;27.634;2023-06-26T10:50:20;54.176437;45.766777;65.833267;;
79288;Laerm;68737;53.946;27.634;2023-06-26T10:55:25;54.374573;44.930771;79.339813;;
79288;Laerm;68737;53.946;27.634;2023-06-26T10:57:49;54.272964;43.990845;65.952484;;
79288;Laerm;68737;53.946;27.634;2023-06-26T11:00:19;57.417007;44.553619;69.274750;;
79288;Laerm;68737;53.946;27.634;2023-06-26T11:02:49;53.119949;42.439919;61.772820;;
79288;Laerm;68737;53.946;27.634;2023-06-26T11:10:19;58.301826;43.392838;75.148109;;
79288;Laerm;68737;53.946;27.634;2023-06-26T11:12:49;54.515533;44.785202;63.379066;;
79288;Laerm;68737;53.946;27.634;2023-06-26T11:15:19;55.687019;44.942810;75.699463;;
79288;Laerm;68737;53.946;27.634;2023-06-26T11:17:49;54.023300;43.104874;65.386215;;
79288;Laerm;68737;53.946;27.634;2023-06-26T11:20:19;56.348869;44.065353;68.708687;;
79288;Laerm;68737;53.946;27.634;2023-06-26T11:22:49;53.050201;42.423309;61.083824;;
79288;Laerm;68737;53.946;27.634;2023-06-26T11:25:19;54.053261;44.881233;65.427376;;
79288;Laerm;68737;53.946;27.634;2023-06-26T11:27:49;55.677818;43.592552;70.580444;;
79288;Laerm;68737;53.946;27.634;2023-06-26T11:32:49;54.464394;44.444916;68.765465;;
79288;Laerm;68737;53.946;27.634;2023-06-26T11:37:49;52.947144;43.314415;59.922958;;
79288;Laerm;68737;53.946;27.634;2023-06-26T11:40:19;50.722054;41.641441;62.075962;;
79288;Laerm;68737;53.946;27.634;2023-06-26T11:42:49;53.069443;44.288811;63.916424;;
79288;Laerm;68737;53.946;27.634;2023-06-26T11:45:19;54.038284;45.598503;64.255325;;
79288;Laerm;68737;53.946;27.634;2023-06-26T11:47:49;56.075188;48.705261;66.165123;;
79288;Laerm;68737;53.946;27.634;2023-06-26T11:50:19;55.348915;44.385124;68.676285;;
79288;Laerm;68737;53.946;27.634;2023-06-26T11:55:19;53.451050;44.302704;61.010052;;
79288;Laerm;68737;53.946;27.634;2023-06-26T11:57:57;54.335297;43.288933;64.496414;;
79288;Laerm;68737;53.946;27.634;2023-06-26T12:00:19;54.386658;46.825905;61.068161;;
79288;Laerm;68737;53.946;27.634;2023-06-26T12:02:49;51.914246;43.546913;59.279312;;
79288;Laerm;68737;53.946;27.634;2023-06-26T12:05:19;54.841087;44.768150;75.924454;;
79288;Laerm;68737;53.946;27.634;2023-06-26T12:07:49;55.606888;43.491936;69.465286;;
79288;Laerm;68737;53.946;27.634;2023-06-26T12:10:19;53.291519;43.712990;60.473484;;
79288;Laerm;68737;53.946;27.634;2023-06-26T12:12:49;52.520531;45.639008;59.073692;;
79288;Laerm;68737;53.946;27.634;2023-06-26T12:15:19;54.708717;45.526909;68.189560;;
79288;Laerm;68737;53.946;27.634;2023-06-26T12:17:49;56.384377;47.380638;65.602478;;
79288;Laerm;68737;53.946;27.634;2023-06-26T12:20:23;53.488014;46.018669;61.690842;;
79288;Laerm;68737;53.946;27.634;2023-06-26T12:22:49;57.633560;49.503220;69.045319;;
79288;Laerm;68737;53.946;27.634;2023-06-26T12:25:23;53.741241;44.664581;65.077805;;